sensor_id;sensor_type;location;lat;lon;timestamp;temperature;humidity
12700;DHT22;6414;49.570;6.060;2023-04-03T00:01:36;3.70;99.90
12700;DHT22;6414;49.570;6.060;2023-04-03T00:04:23;3.80;99.90
12700;DHT22;6414;49.570;6.060;2023-04-03T00:07:09;3.70;99.90
12700;DHT22;6414;49.570;6.060;2023-04-03T00:09:55;3.70;99.90
12700;DHT22;6414;49.570;6.060;2023-04-03T00:12:41;3.70;99.90
12700;DHT22;6414;49.570;6.060;2023-04-03T00:15:27;3.70;99.90
12700;DHT22;6414;49.570;6.060;2023-04-03T00:18:14;3.50;99.90
12700;DHT22;6414;49.570;6.060;2023-04-03T00:21:00;3.50;99.90
12700;DHT22;6414;49.570;6.060;2023-04-03T00:23:46;3.50;99.90
12700;DHT22;6414;49.570;6.060;2023-04-03T00:26:32;3.50;99.90
12700;DHT22;6414;49.570;6.060;2023-04-03T00:29:19;3.50;99.90
12700;DHT22;6414;49.570;6.060;2023-04-03T00:32:05;3.50;99.90
12700;DHT22;6414;49.570;6.060;2023-04-03T00:34:51;3.50;99.90
12700;DHT22;6414;49.570;6.060;2023-04-03T00:37:37;3.50;99.90
12700;DHT22;6414;49.570;6.060;2023-04-03T00:40:24;3.40;99.90
12700;DHT22;6414;49.570;6.060;2023-04-03T00:45:59;3.30;99.90
12700;DHT22;6414;49.570;6.060;2023-04-03T00:48:46;3.40;99.90
12700;DHT22;6414;49.570;6.060;2023-04-03T00:51:32;3.40;99.90
12700;DHT22;6414;49.570;6.060;2023-04-03T00:54:18;3.40;99.90
12700;DHT22;6414;49.570;6.060;2023-04-03T00:57:04;3.40;97.90
12700;DHT22;6414;49.570;6.060;2023-04-03T00:59:51;3.40;96.20
12700;DHT22;6414;49.570;6.060;2023-04-03T01:02:37;3.40;79.20
12700;DHT22;6414;49.570;6.060;2023-04-03T01:05:24;3.50;94.80
12700;DHT22;6414;49.570;6.060;2023-04-03T01:08:10;3.50;97.00
12700;DHT22;6414;49.570;6.060;2023-04-03T01:10:57;3.40;67.90
12700;DHT22;6414;49.570;6.060;2023-04-03T01:13:44;3.40;8.30
12700;DHT22;6414;49.570;6.060;2023-04-03T01:16:30;3.30;5.10
12700;DHT22;6414;49.570;6.060;2023-04-03T01:19:16;3.30;7.60
12700;DHT22;6414;49.570;6.060;2023-04-03T01:22:18;3.40;47.20
12700;DHT22;6414;49.570;6.060;2023-04-03T01:25:01;3.40;43.10
12700;DHT22;6414;49.570;6.060;2023-04-03T01:27:48;3.40;39.00
12700;DHT22;6414;49.570;6.060;2023-04-03T01:30:35;3.40;39.90
12700;DHT22;6414;49.570;6.060;2023-04-03T01:33:20;3.40;42.60
12700;DHT22;6414;49.570;6.060;2023-04-03T01:36:07;3.40;52.30
12700;DHT22;6414;49.570;6.060;2023-04-03T01:38:54;3.30;38.10
12700;DHT22;6414;49.570;6.060;2023-04-03T01:41:41;3.30;26.60
12700;DHT22;6414;49.570;6.060;2023-04-03T01:44:28;3.30;31.50
12700;DHT22;6414;49.570;6.060;2023-04-03T01:47:13;3.30;27.30
12700;DHT22;6414;49.570;6.060;2023-04-03T01:50:00;3.40;59.90
12700;DHT22;6414;49.570;6.060;2023-04-03T01:52:46;3.30;41.00
12700;DHT22;6414;49.570;6.060;2023-04-03T01:55:32;3.40;1.00
12700;DHT22;6414;49.570;6.060;2023-04-03T01:58:18;3.30;1.00
12700;DHT22;6414;49.570;6.060;2023-04-03T02:01:04;3.30;1.00
12700;DHT22;6414;49.570;6.060;2023-04-03T02:03:50;3.30;1.00
12700;DHT22;6414;49.570;6.060;2023-04-03T02:06:36;3.30;1.00
12700;DHT22;6414;49.570;6.060;2023-04-03T02:09:22;3.30;1.00
12700;DHT22;6414;49.570;6.060;2023-04-03T02:12:08;3.20;13.30
12700;DHT22;6414;49.570;6.060;2023-04-03T02:14:55;3.30;1.00
12700;DHT22;6414;49.570;6.060;2023-04-03T02:17:40;3.20;1.00
12700;DHT22;6414;49.570;6.060;2023-04-03T02:20:27;3.20;1.00
12700;DHT22;6414;49.570;6.060;2023-04-03T02:23:13;3.30;17.70
12700;DHT22;6414;49.570;6.060;2023-04-03T02:26:03;3.20;37.40
12700;DHT22;6414;49.570;6.060;2023-04-03T02:28:49;3.10;78.00
12700;DHT22;6414;49.570;6.060;2023-04-03T02:31:35;3.10;28.40
12700;DHT22;6414;49.570;6.060;2023-04-03T02:34:21;3.10;28.50
12700;DHT22;6414;49.570;6.060;2023-04-03T02:37:07;3.00;38.00
12700;DHT22;6414;49.570;6.060;2023-04-03T02:39:54;2.90;99.90
12700;DHT22;6414;49.570;6.060;2023-04-03T02:42:40;2.90;99.90
12700;DHT22;6414;49.570;6.060;2023-04-03T02:45:27;2.80;99.90
12700;DHT22;6414;49.570;6.060;2023-04-03T02:48:14;2.80;99.90
12700;DHT22;6414;49.570;6.060;2023-04-03T02:51:00;2.80;99.90
12700;DHT22;6414;49.570;6.060;2023-04-03T02:53:46;2.70;99.90
12700;DHT22;6414;49.570;6.060;2023-04-03T02:56:32;2.70;99.90
12700;DHT22;6414;49.570;6.060;2023-04-03T02:59:18;2.60;99.90
12700;DHT22;6414;49.570;6.060;2023-04-03T03:02:04;2.60;99.90
12700;DHT22;6414;49.570;6.060;2023-04-03T03:04:50;2.50;99.90
12700;DHT22;6414;49.570;6.060;2023-04-03T03:07:37;2.50;99.90
12700;DHT22;6414;49.570;6.060;2023-04-03T03:10:23;2.40;99.90
12700;DHT22;6414;49.570;6.060;2023-04-03T03:13:09;2.40;99.90
12700;DHT22;6414;49.570;6.060;2023-04-03T03:15:55;2.50;99.90
12700;DHT22;6414;49.570;6.060;2023-04-03T03:18:41;2.30;99.90
12700;DHT22;6414;49.570;6.060;2023-04-03T03:21:27;2.30;99.90
12700;DHT22;6414;49.570;6.060;2023-04-03T03:24:13;2.30;99.90
12700;DHT22;6414;49.570;6.060;2023-04-03T03:27:01;2.20;99.90
12700;DHT22;6414;49.570;6.060;2023-04-03T03:29:47;2.20;99.90
12700;DHT22;6414;49.570;6.060;2023-04-03T03:32:33;2.20;99.90
12700;DHT22;6414;49.570;6.060;2023-04-03T03:35:19;2.10;99.90
12700;DHT22;6414;49.570;6.060;2023-04-03T03:38:05;1.90;99.90
12700;DHT22;6414;49.570;6.060;2023-04-03T03:40:51;1.90;99.90
12700;DHT22;6414;49.570;6.060;2023-04-03T03:43:37;1.80;99.90
12700;DHT22;6414;49.570;6.060;2023-04-03T03:46:24;1.80;99.90
12700;DHT22;6414;49.570;6.060;2023-04-03T03:49:10;1.50;99.90
12700;DHT22;6414;49.570;6.060;2023-04-03T03:51:57;1.50;99.90
12700;DHT22;6414;49.570;6.060;2023-04-03T03:54:43;1.60;99.90
12700;DHT22;6414;49.570;6.060;2023-04-03T03:57:29;1.70;99.90
12700;DHT22;6414;49.570;6.060;2023-04-03T04:00:15;1.60;99.90
12700;DHT22;6414;49.570;6.060;2023-04-03T04:03:02;1.50;99.90
12700;DHT22;6414;49.570;6.060;2023-04-03T04:05:48;1.50;99.90
12700;DHT22;6414;49.570;6.060;2023-04-03T04:08:34;1.50;99.90
12700;DHT22;6414;49.570;6.060;2023-04-03T04:11:20;1.40;99.90
12700;DHT22;6414;49.570;6.060;2023-04-03T04:14:06;1.30;99.90
12700;DHT22;6414;49.570;6.060;2023-04-03T04:16:52;1.20;99.90
12700;DHT22;6414;49.570;6.060;2023-04-03T04:19:39;1.20;99.90
12700;DHT22;6414;49.570;6.060;2023-04-03T04:22:25;1.20;99.90
12700;DHT22;6414;49.570;6.060;2023-04-03T04:25:12;1.20;99.90
12700;DHT22;6414;49.570;6.060;2023-04-03T04:27:58;1.20;99.90
12700;DHT22;6414;49.570;6.060;2023-04-03T04:30:44;1.10;99.90
12700;DHT22;6414;49.570;6.060;2023-04-03T04:33:31;1.10;99.90
12700;DHT22;6414;49.570;6.060;2023-04-03T04:36:17;1.10;99.90
12700;DHT22;6414;49.570;6.060;2023-04-03T04:39:03;1.00;99.90
12700;DHT22;6414;49.570;6.060;2023-04-03T04:41:49;1.00;99.90
12700;DHT22;6414;49.570;6.060;2023-04-03T04:44:35;0.90;99.90
12700;DHT22;6414;49.570;6.060;2023-04-03T04:47:21;0.90;99.90
12700;DHT22;6414;49.570;6.060;2023-04-03T04:50:08;0.80;99.90
12700;DHT22;6414;49.570;6.060;2023-04-03T04:52:54;0.80;99.90
12700;DHT22;6414;49.570;6.060;2023-04-03T04:55:40;0.70;99.90
12700;DHT22;6414;49.570;6.060;2023-04-03T04:58:27;0.70;99.90
12700;DHT22;6414;49.570;6.060;2023-04-03T05:01:13;0.60;99.90
12700;DHT22;6414;49.570;6.060;2023-04-03T05:03:59;0.60;99.90
12700;DHT22;6414;49.570;6.060;2023-04-03T05:06:45;0.50;99.90
12700;DHT22;6414;49.570;6.060;2023-04-03T05:09:31;0.40;99.90
12700;DHT22;6414;49.570;6.060;2023-04-03T05:12:18;0.60;99.90
12700;DHT22;6414;49.570;6.060;2023-04-03T05:15:05;0.70;99.90
12700;DHT22;6414;49.570;6.060;2023-04-03T05:17:51;0.70;99.90
12700;DHT22;6414;49.570;6.060;2023-04-03T05:20:37;0.60;99.90
12700;DHT22;6414;49.570;6.060;2023-04-03T05:23:24;0.60;99.90
12700;DHT22;6414;49.570;6.060;2023-04-03T05:26:10;0.60;99.90
12700;DHT22;6414;49.570;6.060;2023-04-03T05:28:57;0.60;99.90
12700;DHT22;6414;49.570;6.060;2023-04-03T05:31:43;0.70;99.90
12700;DHT22;6414;49.570;6.060;2023-04-03T05:34:29;0.70;99.90
12700;DHT22;6414;49.570;6.060;2023-04-03T05:37:15;0.70;99.90
12700;DHT22;6414;49.570;6.060;2023-04-03T05:40:02;0.70;99.90
12700;DHT22;6414;49.570;6.060;2023-04-03T05:42:49;0.80;99.90
12700;DHT22;6414;49.570;6.060;2023-04-03T05:45:35;0.70;99.90
12700;DHT22;6414;49.570;6.060;2023-04-03T05:48:21;0.70;99.90
12700;DHT22;6414;49.570;6.060;2023-04-03T05:51:09;0.70;99.90
12700;DHT22;6414;49.570;6.060;2023-04-03T05:54:03;0.90;99.90
12700;DHT22;6414;49.570;6.060;2023-04-03T05:56:46;0.80;99.90
12700;DHT22;6414;49.570;6.060;2023-04-03T05:59:32;0.90;99.90
12700;DHT22;6414;49.570;6.060;2023-04-03T06:02:20;0.90;99.90
12700;DHT22;6414;49.570;6.060;2023-04-03T06:05:05;1.00;99.90
12700;DHT22;6414;49.570;6.060;2023-04-03T06:07:51;1.00;99.90
12700;DHT22;6414;49.570;6.060;2023-04-03T06:10:38;1.00;99.90
12700;DHT22;6414;49.570;6.060;2023-04-03T06:13:24;1.30;99.90
12700;DHT22;6414;49.570;6.060;2023-04-03T06:16:13;1.20;99.90
12700;DHT22;6414;49.570;6.060;2023-04-03T06:18:59;1.30;99.90
12700;DHT22;6414;49.570;6.060;2023-04-03T06:21:45;1.30;99.90
12700;DHT22;6414;49.570;6.060;2023-04-03T06:24:31;1.40;99.90
12700;DHT22;6414;49.570;6.060;2023-04-03T06:27:17;1.40;99.90
12700;DHT22;6414;49.570;6.060;2023-04-03T06:30:05;1.70;99.90
12700;DHT22;6414;49.570;6.060;2023-04-03T06:32:50;1.70;99.90
12700;DHT22;6414;49.570;6.060;2023-04-03T06:35:37;1.70;99.90
12700;DHT22;6414;49.570;6.060;2023-04-03T06:38:23;1.90;99.90
12700;DHT22;6414;49.570;6.060;2023-04-03T06:41:09;1.90;99.90
12700;DHT22;6414;49.570;6.060;2023-04-03T06:43:56;2.20;99.90
12700;DHT22;6414;49.570;6.060;2023-04-03T06:46:43;2.20;99.90
12700;DHT22;6414;49.570;6.060;2023-04-03T06:49:29;2.20;99.90
12700;DHT22;6414;49.570;6.060;2023-04-03T06:52:15;2.40;99.90
12700;DHT22;6414;49.570;6.060;2023-04-03T06:55:01;2.50;99.90
12700;DHT22;6414;49.570;6.060;2023-04-03T06:57:48;2.90;99.90
12700;DHT22;6414;49.570;6.060;2023-04-03T07:00:34;2.90;99.90
12700;DHT22;6414;49.570;6.060;2023-04-03T07:03:20;3.00;99.90
12700;DHT22;6414;49.570;6.060;2023-04-03T07:06:07;3.20;99.90
12700;DHT22;6414;49.570;6.060;2023-04-03T07:08:52;3.30;99.90
12700;DHT22;6414;49.570;6.060;2023-04-03T07:11:39;3.50;99.90
12700;DHT22;6414;49.570;6.060;2023-04-03T07:14:26;3.70;99.90
12700;DHT22;6414;49.570;6.060;2023-04-03T07:17:12;3.70;99.90
12700;DHT22;6414;49.570;6.060;2023-04-03T07:19:58;3.60;99.90
12700;DHT22;6414;49.570;6.060;2023-04-03T07:22:44;3.70;99.90
12700;DHT22;6414;49.570;6.060;2023-04-03T07:25:30;3.80;99.90
12700;DHT22;6414;49.570;6.060;2023-04-03T07:28:17;3.80;99.90
12700;DHT22;6414;49.570;6.060;2023-04-03T07:31:06;3.70;99.90
12700;DHT22;6414;49.570;6.060;2023-04-03T07:33:51;3.60;99.90
12700;DHT22;6414;49.570;6.060;2023-04-03T07:36:38;3.50;99.90
12700;DHT22;6414;49.570;6.060;2023-04-03T07:39:24;3.50;99.90
12700;DHT22;6414;49.570;6.060;2023-04-03T07:42:10;3.70;99.90
12700;DHT22;6414;49.570;6.060;2023-04-03T07:44:57;3.80;99.90
12700;DHT22;6414;49.570;6.060;2023-04-03T07:47:43;3.80;99.90
12700;DHT22;6414;49.570;6.060;2023-04-03T07:50:30;3.90;99.90
12700;DHT22;6414;49.570;6.060;2023-04-03T07:53:17;3.90;99.90
12700;DHT22;6414;49.570;6.060;2023-04-03T07:56:03;3.90;99.90
12700;DHT22;6414;49.570;6.060;2023-04-03T07:58:49;4.10;99.90
12700;DHT22;6414;49.570;6.060;2023-04-03T08:01:35;4.10;99.90
12700;DHT22;6414;49.570;6.060;2023-04-03T08:04:22;4.40;99.90
12700;DHT22;6414;49.570;6.060;2023-04-03T08:07:07;4.70;99.90
12700;DHT22;6414;49.570;6.060;2023-04-03T08:09:53;4.80;99.90
12700;DHT22;6414;49.570;6.060;2023-04-03T08:12:40;4.80;19.00
12700;DHT22;6414;49.570;6.060;2023-04-03T08:15:26;5.00;1.00
12700;DHT22;6414;49.570;6.060;2023-04-03T08:18:13;5.10;1.00
12700;DHT22;6414;49.570;6.060;2023-04-03T08:20:59;5.20;1.00
12700;DHT22;6414;49.570;6.060;2023-04-03T08:23:47;5.00;1.00
12700;DHT22;6414;49.570;6.060;2023-04-03T08:26:31;5.20;1.00
12700;DHT22;6414;49.570;6.060;2023-04-03T08:29:18;5.30;1.00
12700;DHT22;6414;49.570;6.060;2023-04-03T08:32:04;5.30;1.00
12700;DHT22;6414;49.570;6.060;2023-04-03T08:34:50;5.30;99.90
12700;DHT22;6414;49.570;6.060;2023-04-03T08:37:36;5.00;1.00
12700;DHT22;6414;49.570;6.060;2023-04-03T08:40:22;5.30;1.00
12700;DHT22;6414;49.570;6.060;2023-04-03T08:43:23;5.40;1.00
12700;DHT22;6414;49.570;6.060;2023-04-03T08:46:05;6.10;1.00
12700;DHT22;6414;49.570;6.060;2023-04-03T08:48:50;5.60;99.90
12700;DHT22;6414;49.570;6.060;2023-04-03T08:51:37;6.00;1.00
12700;DHT22;6414;49.570;6.060;2023-04-03T08:54:30;5.90;1.00
12700;DHT22;6414;49.570;6.060;2023-04-03T08:57:15;6.00;99.90
12700;DHT22;6414;49.570;6.060;2023-04-03T09:00:06;5.90;1.00
12700;DHT22;6414;49.570;6.060;2023-04-03T09:02:51;6.40;1.00
12700;DHT22;6414;49.570;6.060;2023-04-03T09:08:28;7.10;99.90
12700;DHT22;6414;49.570;6.060;2023-04-03T09:14:12;7.60;1.00
12700;DHT22;6414;49.570;6.060;2023-04-03T09:22:32;8.10;1.00
12700;DHT22;6414;49.570;6.060;2023-04-03T09:25:22;8.50;1.00
12700;DHT22;6414;49.570;6.060;2023-04-03T09:28:07;8.50;99.90
12700;DHT22;6414;49.570;6.060;2023-04-03T09:30:53;9.00;99.90
12700;DHT22;6414;49.570;6.060;2023-04-03T09:33:40;8.50;99.90
12700;DHT22;6414;49.570;6.060;2023-04-03T09:36:43;8.80;99.90
12700;DHT22;6414;49.570;6.060;2023-04-03T09:39:28;8.80;99.90
12700;DHT22;6414;49.570;6.060;2023-04-03T09:42:21;9.00;99.90
12700;DHT22;6414;49.570;6.060;2023-04-03T09:45:18;8.90;99.90
12700;DHT22;6414;49.570;6.060;2023-04-03T09:48:12;8.90;99.90
12700;DHT22;6414;49.570;6.060;2023-04-03T09:53:43;9.20;99.90
12700;DHT22;6414;49.570;6.060;2023-04-03T09:56:29;8.10;99.90
12700;DHT22;6414;49.570;6.060;2023-04-03T10:04:13;7.70;99.90
12700;DHT22;6414;49.570;6.060;2023-04-03T10:06:59;7.70;99.90
12700;DHT22;6414;49.570;6.060;2023-04-03T10:09:48;8.60;99.90
12700;DHT22;6414;49.570;6.060;2023-04-03T10:12:31;8.60;99.90
12700;DHT22;6414;49.570;6.060;2023-04-03T10:15:17;9.10;99.90
12700;DHT22;6414;49.570;6.060;2023-04-03T10:18:12;8.00;75.40
12700;DHT22;6414;49.570;6.060;2023-04-03T10:20:52;7.90;99.90
12700;DHT22;6414;49.570;6.060;2023-04-03T10:23:43;8.80;99.90
12700;DHT22;6414;49.570;6.060;2023-04-03T10:35:38;6.80;99.90
12700;DHT22;6414;49.570;6.060;2023-04-03T10:38:33;7.10;99.90
12700;DHT22;6414;49.570;6.060;2023-04-03T10:41:33;7.30;99.90
12700;DHT22;6414;49.570;6.060;2023-04-03T10:44:17;7.30;99.90
12700;DHT22;6414;49.570;6.060;2023-04-03T10:50:01;7.20;99.90
12700;DHT22;6414;49.570;6.060;2023-04-03T10:52:57;7.80;99.90
12700;DHT22;6414;49.570;6.060;2023-04-03T10:55:56;7.80;99.90
12700;DHT22;6414;49.570;6.060;2023-04-03T10:58:40;8.00;99.90
12700;DHT22;6414;49.570;6.060;2023-04-03T11:01:26;8.20;99.90
12700;DHT22;6414;49.570;6.060;2023-04-03T11:04:11;7.90;99.90
12700;DHT22;6414;49.570;6.060;2023-04-03T11:07:01;8.00;99.90
12700;DHT22;6414;49.570;6.060;2023-04-03T11:09:46;7.30;99.90
12700;DHT22;6414;49.570;6.060;2023-04-03T11:12:42;7.20;99.90
12700;DHT22;6414;49.570;6.060;2023-04-03T11:15:29;7.10;99.90
12700;DHT22;6414;49.570;6.060;2023-04-03T11:21:28;7.10;99.90
12700;DHT22;6414;49.570;6.060;2023-04-03T11:24:23;7.50;99.90
12700;DHT22;6414;49.570;6.060;2023-04-03T11:27:11;7.90;1.00
12700;DHT22;6414;49.570;6.060;2023-04-03T11:29:54;7.60;99.90
12700;DHT22;6414;49.570;6.060;2023-04-03T11:35:29;7.40;99.90
12700;DHT22;6414;49.570;6.060;2023-04-03T11:38:21;7.50;99.90
12700;DHT22;6414;49.570;6.060;2023-04-03T11:41:04;7.40;99.90
12700;DHT22;6414;49.570;6.060;2023-04-03T11:44:01;7.20;99.90
12700;DHT22;6414;49.570;6.060;2023-04-03T11:46:57;7.20;99.90
12700;DHT22;6414;49.570;6.060;2023-04-03T11:50:02;7.20;99.90
12700;DHT22;6414;49.570;6.060;2023-04-03T11:58:34;7.70;99.90
12700;DHT22;6414;49.570;6.060;2023-04-03T12:04:26;7.90;38.00
12700;DHT22;6414;49.570;6.060;2023-04-03T12:07:16;7.70;99.90
12700;DHT22;6414;49.570;6.060;2023-04-03T12:09:58;7.70;99.90
12700;DHT22;6414;49.570;6.060;2023-04-03T12:12:55;7.80;99.90
12700;DHT22;6414;49.570;6.060;2023-04-03T12:18:53;7.50;99.90
12700;DHT22;6414;49.570;6.060;2023-04-03T12:24:33;7.30;99.90
12700;DHT22;6414;49.570;6.060;2023-04-03T12:27:23;7.70;99.90
12700;DHT22;6414;49.570;6.060;2023-04-03T12:30:25;8.10;99.90
12700;DHT22;6414;49.570;6.060;2023-04-03T12:39:11;7.80;99.90
12700;DHT22;6414;49.570;6.060;2023-04-03T12:44:59;8.40;99.90
12700;DHT22;6414;49.570;6.060;2023-04-03T12:47:43;8.10;99.90
12700;DHT22;6414;49.570;6.060;2023-04-03T12:50:32;8.00;17.00
12700;DHT22;6414;49.570;6.060;2023-04-03T12:53:21;8.00;23.50
12700;DHT22;6414;49.570;6.060;2023-04-03T12:56:30;8.10;17.80
12700;DHT22;6414;49.570;6.060;2023-04-03T12:59:22;8.10;16.20
12700;DHT22;6414;49.570;6.060;2023-04-03T13:02:12;8.40;15.30
12700;DHT22;6414;49.570;6.060;2023-04-03T13:04:54;8.40;59.40
12700;DHT22;6414;49.570;6.060;2023-04-03T13:07:39;8.50;99.90
12700;DHT22;6414;49.570;6.060;2023-04-03T13:10:25;8.20;19.20
12700;DHT22;6414;49.570;6.060;2023-04-03T13:13:13;8.30;41.60
12700;DHT22;6414;49.570;6.060;2023-04-03T13:15:58;8.30;50.30
12700;DHT22;6414;49.570;6.060;2023-04-03T13:18:44;8.60;49.80
12700;DHT22;6414;49.570;6.060;2023-04-03T13:21:31;8.30;1.00
12700;DHT22;6414;49.570;6.060;2023-04-03T13:24:16;8.00;1.00
12700;DHT22;6414;49.570;6.060;2023-04-03T13:27:04;8.30;12.60
12700;DHT22;6414;49.570;6.060;2023-04-03T13:29:50;8.30;12.50
12700;DHT22;6414;49.570;6.060;2023-04-03T13:32:36;8.10;17.30
12700;DHT22;6414;49.570;6.060;2023-04-03T13:41:05;8.10;1.00
12700;DHT22;6414;49.570;6.060;2023-04-03T13:43:50;8.10;36.80
12700;DHT22;6414;49.570;6.060;2023-04-03T13:46:36;8.10;36.20
12700;DHT22;6414;49.570;6.060;2023-04-03T13:52:29;8.30;1.00
12700;DHT22;6414;49.570;6.060;2023-04-03T13:55:33;8.30;29.30
12700;DHT22;6414;49.570;6.060;2023-04-03T13:58:22;8.00;1.00
12700;DHT22;6414;49.570;6.060;2023-04-03T14:01:09;8.10;1.00
12700;DHT22;6414;49.570;6.060;2023-04-03T14:03:57;8.40;1.00
12700;DHT22;6414;49.570;6.060;2023-04-03T14:06:41;8.50;1.00
12700;DHT22;6414;49.570;6.060;2023-04-03T14:09:27;8.30;1.00
12700;DHT22;6414;49.570;6.060;2023-04-03T14:12:38;8.60;1.00
12700;DHT22;6414;49.570;6.060;2023-04-03T14:15:26;8.50;1.00
12700;DHT22;6414;49.570;6.060;2023-04-03T14:18:11;8.40;1.00
12700;DHT22;6414;49.570;6.060;2023-04-03T14:20:56;8.30;1.00
12700;DHT22;6414;49.570;6.060;2023-04-03T14:23:42;7.80;1.00
12700;DHT22;6414;49.570;6.060;2023-04-03T14:26:28;7.80;1.00
12700;DHT22;6414;49.570;6.060;2023-04-03T14:29:15;7.90;34.00
12700;DHT22;6414;49.570;6.060;2023-04-03T14:32:01;8.00;52.40
12700;DHT22;6414;49.570;6.060;2023-04-03T14:34:48;8.20;1.00
12700;DHT22;6414;49.570;6.060;2023-04-03T14:37:34;8.20;1.00
12700;DHT22;6414;49.570;6.060;2023-04-03T14:40:24;8.20;1.00
12700;DHT22;6414;49.570;6.060;2023-04-03T14:43:09;7.90;1.00
12700;DHT22;6414;49.570;6.060;2023-04-03T14:45:54;8.00;1.00
12700;DHT22;6414;49.570;6.060;2023-04-03T14:48:41;8.10;1.00
12700;DHT22;6414;49.570;6.060;2023-04-03T14:51:26;8.00;1.00
12700;DHT22;6414;49.570;6.060;2023-04-03T14:54:14;8.20;1.00
12700;DHT22;6414;49.570;6.060;2023-04-03T14:56:59;8.30;1.00
12700;DHT22;6414;49.570;6.060;2023-04-03T14:59:46;7.90;1.00
12700;DHT22;6414;49.570;6.060;2023-04-03T15:02:35;8.20;40.40
12700;DHT22;6414;49.570;6.060;2023-04-03T15:05:20;8.40;9.60
12700;DHT22;6414;49.570;6.060;2023-04-03T15:08:09;7.90;1.00
12700;DHT22;6414;49.570;6.060;2023-04-03T15:10:53;8.10;8.30
12700;DHT22;6414;49.570;6.060;2023-04-03T15:13:39;7.80;1.00
12700;DHT22;6414;49.570;6.060;2023-04-03T15:16:25;7.90;1.00
12700;DHT22;6414;49.570;6.060;2023-04-03T15:19:11;8.20;1.00
12700;DHT22;6414;49.570;6.060;2023-04-03T15:21:58;7.90;1.00
12700;DHT22;6414;49.570;6.060;2023-04-03T15:24:44;7.90;1.00
12700;DHT22;6414;49.570;6.060;2023-04-03T15:27:30;8.10;1.00
12700;DHT22;6414;49.570;6.060;2023-04-03T15:30:17;8.10;1.00
12700;DHT22;6414;49.570;6.060;2023-04-03T15:33:02;7.90;1.00
12700;DHT22;6414;49.570;6.060;2023-04-03T15:35:48;8.00;1.00
12700;DHT22;6414;49.570;6.060;2023-04-03T15:38:34;8.20;1.00
12700;DHT22;6414;49.570;6.060;2023-04-03T15:41:21;8.30;1.00
12700;DHT22;6414;49.570;6.060;2023-04-03T15:44:08;8.10;1.00
12700;DHT22;6414;49.570;6.060;2023-04-03T15:46:54;8.00;1.00
12700;DHT22;6414;49.570;6.060;2023-04-03T15:49:40;8.30;1.00
12700;DHT22;6414;49.570;6.060;2023-04-03T15:52:26;8.20;1.00
12700;DHT22;6414;49.570;6.060;2023-04-03T15:55:12;8.20;1.00
12700;DHT22;6414;49.570;6.060;2023-04-03T15:57:58;8.20;1.00
12700;DHT22;6414;49.570;6.060;2023-04-03T16:00:44;8.20;1.00
12700;DHT22;6414;49.570;6.060;2023-04-03T16:03:31;8.20;1.00
12700;DHT22;6414;49.570;6.060;2023-04-03T16:06:18;8.10;1.00
12700;DHT22;6414;49.570;6.060;2023-04-03T16:09:03;7.80;1.00
12700;DHT22;6414;49.570;6.060;2023-04-03T16:11:49;7.90;1.00
12700;DHT22;6414;49.570;6.060;2023-04-03T16:14:35;7.90;1.00
12700;DHT22;6414;49.570;6.060;2023-04-03T16:17:21;7.90;1.00
12700;DHT22;6414;49.570;6.060;2023-04-03T16:20:07;7.70;1.00
12700;DHT22;6414;49.570;6.060;2023-04-03T16:22:53;7.60;1.30
12700;DHT22;6414;49.570;6.060;2023-04-03T16:25:39;7.60;1.00
12700;DHT22;6414;49.570;6.060;2023-04-03T16:28:25;7.60;14.70
12700;DHT22;6414;49.570;6.060;2023-04-03T16:31:12;7.70;10.20
12700;DHT22;6414;49.570;6.060;2023-04-03T16:33:58;7.50;5.30
12700;DHT22;6414;49.570;6.060;2023-04-03T16:36:44;7.50;4.90
12700;DHT22;6414;49.570;6.060;2023-04-03T16:39:31;7.60;24.80
12700;DHT22;6414;49.570;6.060;2023-04-03T16:42:18;7.60;3.00
12700;DHT22;6414;49.570;6.060;2023-04-03T16:45:04;7.60;3.00
12700;DHT22;6414;49.570;6.060;2023-04-03T16:47:50;7.70;25.90
12700;DHT22;6414;49.570;6.060;2023-04-03T16:50:36;7.50;16.40
12700;DHT22;6414;49.570;6.060;2023-04-03T16:53:23;7.40;1.00
12700;DHT22;6414;49.570;6.060;2023-04-03T16:56:09;7.40;41.00
12700;DHT22;6414;49.570;6.060;2023-04-03T16:58:55;7.40;39.20
12700;DHT22;6414;49.570;6.060;2023-04-03T17:01:42;7.40;65.40
12700;DHT22;6414;49.570;6.060;2023-04-03T17:04:28;6.90;49.80
12700;DHT22;6414;49.570;6.060;2023-04-03T17:07:15;7.00;98.20
12700;DHT22;6414;49.570;6.060;2023-04-03T17:10:02;7.00;98.40
12700;DHT22;6414;49.570;6.060;2023-04-03T17:12:48;7.10;99.90
12700;DHT22;6414;49.570;6.060;2023-04-03T17:15:34;7.20;99.90
12700;DHT22;6414;49.570;6.060;2023-04-03T17:18:20;7.20;99.90
12700;DHT22;6414;49.570;6.060;2023-04-03T17:21:07;7.00;43.80
12700;DHT22;6414;49.570;6.060;2023-04-03T17:23:57;7.00;93.70
12700;DHT22;6414;49.570;6.060;2023-04-03T17:26:42;7.00;93.40
12700;DHT22;6414;49.570;6.060;2023-04-03T17:29:28;7.00;43.00
12700;DHT22;6414;49.570;6.060;2023-04-03T17:32:14;6.90;99.90
12700;DHT22;6414;49.570;6.060;2023-04-03T17:35:01;6.70;39.30
12700;DHT22;6414;49.570;6.060;2023-04-03T17:37:48;6.70;39.10
12700;DHT22;6414;49.570;6.060;2023-04-03T17:40:34;6.60;40.30
12700;DHT22;6414;49.570;6.060;2023-04-03T17:43:20;6.60;87.40
12700;DHT22;6414;49.570;6.060;2023-04-03T17:46:08;6.50;59.90
12700;DHT22;6414;49.570;6.060;2023-04-03T17:48:54;6.40;42.90
12700;DHT22;6414;49.570;6.060;2023-04-03T17:51:40;6.30;42.50
12700;DHT22;6414;49.570;6.060;2023-04-03T17:54:27;6.20;56.10
12700;DHT22;6414;49.570;6.060;2023-04-03T17:57:13;6.20;55.70
12700;DHT22;6414;49.570;6.060;2023-04-03T18:00:02;6.20;58.60
12700;DHT22;6414;49.570;6.060;2023-04-03T18:02:51;6.10;74.20
12700;DHT22;6414;49.570;6.060;2023-04-03T18:05:34;6.10;74.40
12700;DHT22;6414;49.570;6.060;2023-04-03T18:08:20;6.10;82.60
12700;DHT22;6414;49.570;6.060;2023-04-03T18:11:06;6.00;99.20
12700;DHT22;6414;49.570;6.060;2023-04-03T18:13:54;6.00;91.90
12700;DHT22;6414;49.570;6.060;2023-04-03T18:16:39;5.90;99.90
12700;DHT22;6414;49.570;6.060;2023-04-03T18:19:25;5.70;99.90
12700;DHT22;6414;49.570;6.060;2023-04-03T18:22:13;5.70;99.90
12700;DHT22;6414;49.570;6.060;2023-04-03T18:24:58;5.70;99.90
12700;DHT22;6414;49.570;6.060;2023-04-03T18:27:44;5.70;99.90
12700;DHT22;6414;49.570;6.060;2023-04-03T18:30:34;5.60;99.90
12700;DHT22;6414;49.570;6.060;2023-04-03T18:33:17;5.60;99.90
12700;DHT22;6414;49.570;6.060;2023-04-03T18:36:04;5.50;99.90
12700;DHT22;6414;49.570;6.060;2023-04-03T18:38:51;5.30;99.90
12700;DHT22;6414;49.570;6.060;2023-04-03T18:41:37;5.30;99.90
12700;DHT22;6414;49.570;6.060;2023-04-03T18:44:23;5.20;99.90
12700;DHT22;6414;49.570;6.060;2023-04-03T18:47:09;5.20;99.90
12700;DHT22;6414;49.570;6.060;2023-04-03T18:49:55;5.20;99.90
12700;DHT22;6414;49.570;6.060;2023-04-03T18:52:41;5.20;99.90
12700;DHT22;6414;49.570;6.060;2023-04-03T18:55:27;5.10;99.90
12700;DHT22;6414;49.570;6.060;2023-04-03T18:58:13;5.00;99.90
12700;DHT22;6414;49.570;6.060;2023-04-03T19:01:00;5.00;99.90
12700;DHT22;6414;49.570;6.060;2023-04-03T19:03:46;5.00;99.90
12700;DHT22;6414;49.570;6.060;2023-04-03T19:06:32;5.00;99.90
12700;DHT22;6414;49.570;6.060;2023-04-03T19:09:18;5.00;96.20
12700;DHT22;6414;49.570;6.060;2023-04-03T19:12:06;4.90;88.20
12700;DHT22;6414;49.570;6.060;2023-04-03T19:14:52;4.90;87.20
12700;DHT22;6414;49.570;6.060;2023-04-03T19:17:38;4.80;90.50
12700;DHT22;6414;49.570;6.060;2023-04-03T19:20:24;4.80;96.20
12700;DHT22;6414;49.570;6.060;2023-04-03T19:23:10;4.80;52.50
12700;DHT22;6414;49.570;6.060;2023-04-03T19:25:57;4.80;40.70